sensor_id;sensor_type;location;lat;lon;timestamp;P1;durP1;ratioP1;P2;durP2;ratioP2
71484;SDS011;59300;52.074;4.758;2022-11-15T00:01:39;133.57;;;37.75;;
71484;SDS011;59300;52.074;4.758;2022-11-15T00:04:59;140.55;;;37.47;;
71484;SDS011;59300;52.074;4.758;2022-11-15T00:08:19;145.48;;;40.72;;
71484;SDS011;59300;52.074;4.758;2022-11-15T00:11:40;137.25;;;37.70;;
71484;SDS011;59300;52.074;4.758;2022-11-15T00:15:00;146.68;;;39.15;;
71484;SDS011;59300;52.074;4.758;2022-11-15T00:18:20;165.93;;;40.22;;
71484;SDS011;59300;52.074;4.758;2022-11-15T00:21:41;139.68;;;38.58;;
71484;SDS011;59300;52.074;4.758;2022-11-15T00:25:00;157.13;;;38.50;;
71484;SDS011;59300;52.074;4.758;2022-11-15T00:28:21;147.48;;;37.65;;
71484;SDS011;59300;52.074;4.758;2022-11-15T00:31:41;173.00;;;40.38;;
71484;SDS011;59300;52.074;4.758;2022-11-15T00:35:01;185.52;;;39.72;;
71484;SDS011;59300;52.074;4.758;2022-11-15T00:38:21;185.20;;;40.97;;
71484;SDS011;59300;52.074;4.758;2022-11-15T00:41:41;180.98;;;39.58;;
71484;SDS011;59300;52.074;4.758;2022-11-15T00:45:01;218.55;;;43.47;;
71484;SDS011;59300;52.074;4.758;2022-11-15T00:48:22;211.45;;;42.08;;
71484;SDS011;59300;52.074;4.758;2022-11-15T00:51:42;223.10;;;42.45;;
71484;SDS011;59300;52.074;4.758;2022-11-15T00:55:02;192.10;;;41.45;;
71484;SDS011;59300;52.074;4.758;2022-11-15T00:58:22;216.85;;;40.95;;
71484;SDS011;59300;52.074;4.758;2022-11-15T01:01:42;179.88;;;40.20;;
71484;SDS011;59300;52.074;4.758;2022-11-15T01:05:02;201.10;;;40.58;;
71484;SDS011;59300;52.074;4.758;2022-11-15T01:08:22;199.55;;;42.17;;
71484;SDS011;59300;52.074;4.758;2022-11-15T01:11:42;171.60;;;39.42;;
71484;SDS011;59300;52.074;4.758;2022-11-15T01:15:03;190.05;;;41.30;;
71484;SDS011;59300;52.074;4.758;2022-11-15T01:18:24;199.65;;;40.70;;
71484;SDS011;59300;52.074;4.758;2022-11-15T01:21:44;190.60;;;41.78;;
71484;SDS011;59300;52.074;4.758;2022-11-15T01:25:04;188.88;;;41.53;;
71484;SDS011;59300;52.074;4.758;2022-11-15T01:28:24;184.57;;;40.83;;
71484;SDS011;59300;52.074;4.758;2022-11-15T01:31:44;230.15;;;41.60;;
71484;SDS011;59300;52.074;4.758;2022-11-15T01:35:04;223.65;;;42.08;;
71484;SDS011;59300;52.074;4.758;2022-11-15T01:38:24;201.80;;;41.63;;
71484;SDS011;59300;52.074;4.758;2022-11-15T01:41:44;199.05;;;42.88;;
71484;SDS011;59300;52.074;4.758;2022-11-15T01:45:04;207.60;;;41.30;;
71484;SDS011;59300;52.074;4.758;2022-11-15T01:48:25;222.13;;;42.55;;
71484;SDS011;59300;52.074;4.758;2022-11-15T01:51:52;214.90;;;42.58;;
71484;SDS011;59300;52.074;4.758;2022-11-15T01:55:15;237.65;;;44.53;;
71484;SDS011;59300;52.074;4.758;2022-11-15T01:58:39;251.35;;;44.83;;
71484;SDS011;59300;52.074;4.758;2022-11-15T02:02:00;246.98;;;46.45;;
71484;SDS011;59300;52.074;4.758;2022-11-15T02:05:20;252.02;;;45.92;;
71484;SDS011;59300;52.074;4.758;2022-11-15T02:08:40;252.35;;;46.42;;
71484;SDS011;59300;52.074;4.758;2022-11-15T02:12:01;258.95;;;47.85;;
71484;SDS011;59300;52.074;4.758;2022-11-15T02:15:23;253.85;;;46.65;;
71484;SDS011;59300;52.074;4.758;2022-11-15T02:22:40;198.15;;;43.95;;
71484;SDS011;59300;52.074;4.758;2022-11-15T02:30:00;226.23;;;46.78;;
71484;SDS011;59300;52.074;4.758;2022-11-15T02:33:41;212.25;;;45.17;;
71484;SDS011;59300;52.074;4.758;2022-11-15T02:37:03;208.38;;;46.53;;
71484;SDS011;59300;52.074;4.758;2022-11-15T02:44:12;220.60;;;44.38;;
71484;SDS011;59300;52.074;4.758;2022-11-15T02:47:38;225.48;;;45.05;;
71484;SDS011;59300;52.074;4.758;2022-11-15T02:51:03;263.70;;;50.17;;
71484;SDS011;59300;52.074;4.758;2022-11-15T02:54:25;224.05;;;45.78;;
71484;SDS011;59300;52.074;4.758;2022-11-15T02:57:51;240.93;;;49.63;;
71484;SDS011;59300;52.074;4.758;2022-11-15T03:05:09;232.75;;;49.13;;
71484;SDS011;59300;52.074;4.758;2022-11-15T03:09:01;235.60;;;47.58;;
71484;SDS011;59300;52.074;4.758;2022-11-15T03:12:51;255.77;;;50.53;;
71484;SDS011;59300;52.074;4.758;2022-11-15T03:19:44;248.57;;;49.78;;
71484;SDS011;59300;52.074;4.758;2022-11-15T03:23:08;239.93;;;51.25;;
71484;SDS011;59300;52.074;4.758;2022-11-15T03:26:30;245.25;;;48.50;;
71484;SDS011;59300;52.074;4.758;2022-11-15T03:29:55;228.43;;;47.05;;
71484;SDS011;59300;52.074;4.758;2022-11-15T03:33:19;231.25;;;47.45;;
71484;SDS011;59300;52.074;4.758;2022-11-15T03:36:41;221.90;;;46.38;;
71484;SDS011;59300;52.074;4.758;2022-11-15T03:40:03;215.85;;;46.88;;
71484;SDS011;59300;52.074;4.758;2022-11-15T03:43:33;213.07;;;48.10;;
71484;SDS011;59300;52.074;4.758;2022-11-15T03:50:41;229.75;;;49.60;;
71484;SDS011;59300;52.074;4.758;2022-11-15T03:54:04;204.05;;;47.35;;
71484;SDS011;59300;52.074;4.758;2022-11-15T03:57:24;208.65;;;46.85;;
71484;SDS011;59300;52.074;4.758;2022-11-15T04:00:44;217.70;;;47.95;;
71484;SDS011;59300;52.074;4.758;2022-11-15T04:04:04;206.52;;;48.85;;
71484;SDS011;59300;52.074;4.758;2022-11-15T04:07:23;202.35;;;44.55;;
71484;SDS011;59300;52.074;4.758;2022-11-15T04:10:44;186.00;;;44.60;;
71484;SDS011;59300;52.074;4.758;2022-11-15T04:14:04;175.30;;;46.55;;
71484;SDS011;59300;52.074;4.758;2022-11-15T04:17:24;187.93;;;45.67;;
71484;SDS011;59300;52.074;4.758;2022-11-15T04:20:44;184.65;;;45.45;;
71484;SDS011;59300;52.074;4.758;2022-11-15T04:24:04;169.25;;;44.53;;
71484;SDS011;59300;52.074;4.758;2022-11-15T04:27:24;170.68;;;43.97;;
71484;SDS011;59300;52.074;4.758;2022-11-15T04:30:45;167.60;;;44.47;;
71484;SDS011;59300;52.074;4.758;2022-11-15T04:34:05;161.48;;;44.00;;
71484;SDS011;59300;52.074;4.758;2022-11-15T04:37:25;176.98;;;44.38;;
71484;SDS011;59300;52.074;4.758;2022-11-15T04:40:45;154.23;;;41.30;;
71484;SDS011;59300;52.074;4.758;2022-11-15T04:44:06;167.52;;;42.03;;
71484;SDS011;59300;52.074;4.758;2022-11-15T04:47:26;155.60;;;42.72;;
71484;SDS011;59300;52.074;4.758;2022-11-15T04:50:49;149.35;;;41.17;;
71484;SDS011;59300;52.074;4.758;2022-11-15T04:54:09;142.68;;;41.47;;
71484;SDS011;59300;52.074;4.758;2022-11-15T04:57:29;158.70;;;40.67;;
71484;SDS011;59300;52.074;4.758;2022-11-15T05:00:49;136.63;;;39.80;;
71484;SDS011;59300;52.074;4.758;2022-11-15T05:04:10;134.65;;;38.17;;
71484;SDS011;59300;52.074;4.758;2022-11-15T05:07:29;141.48;;;38.15;;
71484;SDS011;59300;52.074;4.758;2022-11-15T05:10:50;129.15;;;38.85;;
71484;SDS011;59300;52.074;4.758;2022-11-15T05:14:10;121.03;;;35.97;;
71484;SDS011;59300;52.074;4.758;2022-11-15T05:17:31;123.47;;;36.72;;
71484;SDS011;59300;52.074;4.758;2022-11-15T05:20:51;124.25;;;35.28;;
71484;SDS011;59300;52.074;4.758;2022-11-15T05:24:11;118.72;;;35.55;;
71484;SDS011;59300;52.074;4.758;2022-11-15T05:27:32;122.28;;;36.85;;
71484;SDS011;59300;52.074;4.758;2022-11-15T05:30:53;118.90;;;35.15;;
71484;SDS011;59300;52.074;4.758;2022-11-15T05:34:13;116.32;;;35.58;;
71484;SDS011;59300;52.074;4.758;2022-11-15T05:37:33;104.07;;;34.00;;
71484;SDS011;59300;52.074;4.758;2022-11-15T05:40:53;93.57;;;32.45;;
71484;SDS011;59300;52.074;4.758;2022-11-15T05:44:14;87.28;;;31.30;;
71484;SDS011;59300;52.074;4.758;2022-11-15T05:47:38;85.25;;;30.40;;
71484;SDS011;59300;52.074;4.758;2022-11-15T05:50:59;78.30;;;29.67;;
71484;SDS011;59300;52.074;4.758;2022-11-15T05:54:19;70.90;;;27.45;;
71484;SDS011;59300;52.074;4.758;2022-11-15T05:57:43;74.28;;;27.95;;
71484;SDS011;59300;52.074;4.758;2022-11-15T06:01:04;74.68;;;26.73;;
71484;SDS011;59300;52.074;4.758;2022-11-15T06:04:25;70.80;;;25.65;;
71484;SDS011;59300;52.074;4.758;2022-11-15T06:07:45;70.15;;;26.35;;
71484;SDS011;59300;52.074;4.758;2022-11-15T06:11:05;62.78;;;24.92;;
71484;SDS011;59300;52.074;4.758;2022-11-15T06:14:26;58.20;;;23.65;;
71484;SDS011;59300;52.074;4.758;2022-11-15T06:17:46;52.53;;;22.40;;
71484;SDS011;59300;52.074;4.758;2022-11-15T06:21:07;59.72;;;23.80;;
71484;SDS011;59300;52.074;4.758;2022-11-15T06:24:27;54.55;;;21.92;;
71484;SDS011;59300;52.074;4.758;2022-11-15T06:27:50;49.80;;;20.23;;
71484;SDS011;59300;52.074;4.758;2022-11-15T06:31:14;42.88;;;18.77;;
71484;SDS011;59300;52.074;4.758;2022-11-15T06:34:34;46.78;;;18.83;;
71484;SDS011;59300;52.074;4.758;2022-11-15T06:37:54;53.97;;;20.63;;
71484;SDS011;59300;52.074;4.758;2022-11-15T06:41:15;52.78;;;22.17;;
71484;SDS011;59300;52.074;4.758;2022-11-15T06:44:35;74.97;;;24.88;;
71484;SDS011;59300;52.074;4.758;2022-11-15T06:47:55;67.40;;;25.23;;
71484;SDS011;59300;52.074;4.758;2022-11-15T06:51:15;51.13;;;23.75;;
71484;SDS011;59300;52.074;4.758;2022-11-15T06:54:36;67.97;;;24.98;;
71484;SDS011;59300;52.074;4.758;2022-11-15T06:57:55;73.93;;;25.88;;
71484;SDS011;59300;52.074;4.758;2022-11-15T07:01:15;72.90;;;25.80;;
71484;SDS011;59300;52.074;4.758;2022-11-15T07:04:36;78.70;;;27.98;;
71484;SDS011;59300;52.074;4.758;2022-11-15T07:07:56;78.03;;;27.58;;
71484;SDS011;59300;52.074;4.758;2022-11-15T07:11:17;83.03;;;27.42;;
71484;SDS011;59300;52.074;4.758;2022-11-15T07:14:37;80.13;;;27.45;;
71484;SDS011;59300;52.074;4.758;2022-11-15T07:18:00;84.03;;;27.73;;
71484;SDS011;59300;52.074;4.758;2022-11-15T07:21:20;76.75;;;26.15;;
71484;SDS011;59300;52.074;4.758;2022-11-15T07:24:46;73.55;;;25.50;;
71484;SDS011;59300;52.074;4.758;2022-11-15T07:28:06;80.28;;;24.58;;
71484;SDS011;59300;52.074;4.758;2022-11-15T07:31:26;63.40;;;23.30;;
71484;SDS011;59300;52.074;4.758;2022-11-15T07:34:46;68.57;;;23.23;;
71484;SDS011;59300;52.074;4.758;2022-11-15T07:38:06;64.75;;;23.85;;
71484;SDS011;59300;52.074;4.758;2022-11-15T07:41:26;58.97;;;24.70;;
71484;SDS011;59300;52.074;4.758;2022-11-15T07:44:46;57.03;;;24.85;;
71484;SDS011;59300;52.074;4.758;2022-11-15T07:48:07;63.50;;;24.30;;
71484;SDS011;59300;52.074;4.758;2022-11-15T07:51:27;65.70;;;24.13;;
71484;SDS011;59300;52.074;4.758;2022-11-15T07:54:47;60.67;;;24.10;;
71484;SDS011;59300;52.074;4.758;2022-11-15T07:58:08;58.50;;;24.33;;
71484;SDS011;59300;52.074;4.758;2022-11-15T08:01:30;65.20;;;24.23;;
71484;SDS011;59300;52.074;4.758;2022-11-15T08:04:50;53.85;;;23.35;;
71484;SDS011;59300;52.074;4.758;2022-11-15T08:08:10;58.85;;;23.25;;
71484;SDS011;59300;52.074;4.758;2022-11-15T08:11:31;46.45;;;20.50;;
71484;SDS011;59300;52.074;4.758;2022-11-15T08:14:51;48.65;;;20.85;;
71484;SDS011;59300;52.074;4.758;2022-11-15T08:18:12;42.60;;;19.58;;
71484;SDS011;59300;52.074;4.758;2022-11-15T08:21:34;45.30;;;19.95;;
71484;SDS011;59300;52.074;4.758;2022-11-15T08:24:54;32.92;;;17.88;;
71484;SDS011;59300;52.074;4.758;2022-11-15T08:28:15;41.45;;;17.67;;
71484;SDS011;59300;52.074;4.758;2022-11-15T08:31:36;31.48;;;16.58;;
71484;SDS011;59300;52.074;4.758;2022-11-15T08:34:56;32.00;;;15.48;;
71484;SDS011;59300;52.074;4.758;2022-11-15T08:38:16;32.65;;;13.90;;
71484;SDS011;59300;52.074;4.758;2022-11-15T08:41:36;29.75;;;14.25;;
71484;SDS011;59300;52.074;4.758;2022-11-15T08:44:57;24.25;;;12.65;;
71484;SDS011;59300;52.074;4.758;2022-11-15T08:48:17;24.73;;;11.55;;
71484;SDS011;59300;52.074;4.758;2022-11-15T08:51:37;23.40;;;11.00;;
71484;SDS011;59300;52.074;4.758;2022-11-15T08:54:57;22.05;;;10.20;;
71484;SDS011;59300;52.074;4.758;2022-11-15T08:58:17;15.30;;;9.25;;
71484;SDS011;59300;52.074;4.758;2022-11-15T09:01:38;19.40;;;9.40;;
71484;SDS011;59300;52.074;4.758;2022-11-15T09:04:58;19.88;;;9.50;;
71484;SDS011;59300;52.074;4.758;2022-11-15T09:08:18;17.40;;;9.40;;
71484;SDS011;59300;52.074;4.758;2022-11-15T09:11:58;18.23;;;8.95;;
71484;SDS011;59300;52.074;4.758;2022-11-15T09:15:21;16.10;;;9.15;;
71484;SDS011;59300;52.074;4.758;2022-11-15T09:18:41;15.00;;;8.10;;
71484;SDS011;59300;52.074;4.758;2022-11-15T09:22:02;16.23;;;8.57;;
71484;SDS011;59300;52.074;4.758;2022-11-15T09:25:25;19.80;;;9.80;;
71484;SDS011;59300;52.074;4.758;2022-11-15T09:28:45;17.05;;;9.25;;
71484;SDS011;59300;52.074;4.758;2022-11-15T09:32:05;18.10;;;10.05;;
71484;SDS011;59300;52.074;4.758;2022-11-15T09:35:25;16.92;;;9.23;;
71484;SDS011;59300;52.074;4.758;2022-11-15T09:38:46;18.63;;;9.50;;
71484;SDS011;59300;52.074;4.758;2022-11-15T09:49:26;14.38;;;7.80;;
71484;SDS011;59300;52.074;4.758;2022-11-15T09:52:47;14.10;;;7.57;;
71484;SDS011;59300;52.074;4.758;2022-11-15T09:55:59;9.10;;;6.95;;
71484;SDS011;59300;52.074;4.758;2022-11-15T10:05:42;14.45;;;6.18;;
71484;SDS011;59300;52.074;4.758;2022-11-15T10:08:47;12.23;;;5.60;;
71484;SDS011;59300;52.074;4.758;2022-11-15T10:12:08;7.68;;;4.85;;
71484;SDS011;59300;52.074;4.758;2022-11-15T10:15:15;8.77;;;5.22;;
71484;SDS011;59300;52.074;4.758;2022-11-15T10:18:18;8.43;;;4.82;;
71484;SDS011;59300;52.074;4.758;2022-11-15T10:21:37;10.10;;;5.05;;
71484;SDS011;59300;52.074;4.758;2022-11-15T10:25:12;13.10;;;5.78;;
71484;SDS011;59300;52.074;4.758;2022-11-15T10:28:21;8.88;;;4.97;;
71484;SDS011;59300;52.074;4.758;2022-11-15T10:31:27;9.73;;;4.55;;
71484;SDS011;59300;52.074;4.758;2022-11-15T10:34:34;11.30;;;4.97;;
71484;SDS011;59300;52.074;4.758;2022-11-15T10:37:37;10.82;;;4.78;;
71484;SDS011;59300;52.074;4.758;2022-11-15T10:40:39;9.52;;;4.63;;
71484;SDS011;59300;52.074;4.758;2022-11-15T10:43:42;12.10;;;4.50;;
71484;SDS011;59300;52.074;4.758;2022-11-15T10:46:44;9.82;;;4.03;;
71484;SDS011;59300;52.074;4.758;2022-11-15T10:49:55;9.23;;;3.75;;
71484;SDS011;59300;52.074;4.758;2022-11-15T10:52:58;6.93;;;3.30;;
71484;SDS011;59300;52.074;4.758;2022-11-15T10:59:09;7.93;;;3.17;;
71484;SDS011;59300;52.074;4.758;2022-11-15T11:02:35;8.57;;;3.33;;
71484;SDS011;59300;52.074;4.758;2022-11-15T11:05:39;8.82;;;4.10;;
71484;SDS011;59300;52.074;4.758;2022-11-15T11:09:00;7.30;;;3.72;;
71484;SDS011;59300;52.074;4.758;2022-11-15T11:12:04;7.32;;;3.45;;
71484;SDS011;59300;52.074;4.758;2022-11-15T11:15:11;8.55;;;3.55;;
71484;SDS011;59300;52.074;4.758;2022-11-15T11:18:21;7.95;;;3.30;;
71484;SDS011;59300;52.074;4.758;2022-11-15T11:21:36;6.30;;;3.13;;
71484;SDS011;59300;52.074;4.758;2022-11-15T11:28:48;6.68;;;2.92;;
71484;SDS011;59300;52.074;4.758;2022-11-15T11:35:30;7.20;;;2.70;;
71484;SDS011;59300;52.074;4.758;2022-11-15T11:51:49;8.32;;;2.20;;
71484;SDS011;59300;52.074;4.758;2022-11-15T12:01:23;9.18;;;2.00;;
71484;SDS011;59300;52.074;4.758;2022-11-15T12:04:30;4.80;;;2.20;;
71484;SDS011;59300;52.074;4.758;2022-11-15T12:07:38;6.05;;;2.05;;
71484;SDS011;59300;52.074;4.758;2022-11-15T12:10:42;6.95;;;1.83;;
71484;SDS011;59300;52.074;4.758;2022-11-15T12:13:50;6.93;;;2.10;;
71484;SDS011;59300;52.074;4.758;2022-11-15T12:16:58;7.78;;;2.30;;
71484;SDS011;59300;52.074;4.758;2022-11-15T12:20:04;10.13;;;2.63;;
71484;SDS011;59300;52.074;4.758;2022-11-15T12:30:27;5.93;;;2.15;;
71484;SDS011;59300;52.074;4.758;2022-11-15T12:33:43;5.97;;;2.00;;
71484;SDS011;59300;52.074;4.758;2022-11-15T12:36:47;5.35;;;1.80;;
71484;SDS011;59300;52.074;4.758;2022-11-15T12:40:04;9.02;;;2.25;;
71484;SDS011;59300;52.074;4.758;2022-11-15T12:43:33;6.40;;;1.55;;
71484;SDS011;59300;52.074;4.758;2022-11-15T12:53:25;8.40;;;1.85;;
71484;SDS011;59300;52.074;4.758;2022-11-15T12:56:24;4.28;;;1.10;;
71484;SDS011;59300;52.074;4.758;2022-11-15T13:03:16;10.00;;;1.83;;
71484;SDS011;59300;52.074;4.758;2022-11-15T13:09:58;5.15;;;1.45;;
71484;SDS011;59300;52.074;4.758;2022-11-15T13:13:00;4.53;;;0.98;;
71484;SDS011;59300;52.074;4.758;2022-11-15T13:16:04;11.77;;;2.35;;
71484;SDS011;59300;52.074;4.758;2022-11-15T13:19:05;7.07;;;1.35;;
71484;SDS011;59300;52.074;4.758;2022-11-15T13:22:11;3.05;;;1.13;;
71484;SDS011;59300;52.074;4.758;2022-11-15T13:25:16;6.55;;;1.38;;
71484;SDS011;59300;52.074;4.758;2022-11-15T13:28:37;5.72;;;1.17;;
71484;SDS011;59300;52.074;4.758;2022-11-15T13:31:43;3.50;;;1.27;;
71484;SDS011;59300;52.074;4.758;2022-11-15T13:34:47;6.47;;;1.33;;
71484;SDS011;59300;52.074;4.758;2022-11-15T13:37:53;3.60;;;1.20;;
71484;SDS011;59300;52.074;4.758;2022-11-15T13:40:57;6.70;;;1.45;;
71484;SDS011;59300;52.074;4.758;2022-11-15T13:44:00;5.93;;;1.17;;
71484;SDS011;59300;52.074;4.758;2022-11-15T13:47:04;8.38;;;1.50;;
71484;SDS011;59300;52.074;4.758;2022-11-15T13:50:11;12.45;;;1.95;;
71484;SDS011;59300;52.074;4.758;2022-11-15T13:53:13;4.45;;;1.00;;
71484;SDS011;59300;52.074;4.758;2022-11-15T13:56:16;3.67;;;1.10;;
71484;SDS011;59300;52.074;4.758;2022-11-15T14:02:29;4.55;;;1.10;;
71484;SDS011;59300;52.074;4.758;2022-11-15T14:05:32;4.88;;;1.30;;
71484;SDS011;59300;52.074;4.758;2022-11-15T14:08:34;6.13;;;1.30;;
71484;SDS011;59300;52.074;4.758;2022-11-15T14:11:37;4.60;;;1.35;;
71484;SDS011;59300;52.074;4.758;2022-11-15T14:14:49;9.25;;;1.58;;
71484;SDS011;59300;52.074;4.758;2022-11-15T14:17:51;10.82;;;1.55;;
71484;SDS011;59300;52.074;4.758;2022-11-15T14:21:08;4.32;;;1.13;;
71484;SDS011;59300;52.074;4.758;2022-11-15T14:24:17;3.25;;;1.20;;
71484;SDS011;59300;52.074;4.758;2022-11-15T14:27:21;3.03;;;1.55;;
71484;SDS011;59300;52.074;4.758;2022-11-15T14:30:27;3.15;;;1.50;;
71484;SDS011;59300;52.074;4.758;2022-11-15T14:36:30;10.23;;;1.63;;
71484;SDS011;59300;52.074;4.758;2022-11-15T14:39:31;3.08;;;1.23;;
71484;SDS011;59300;52.074;4.758;2022-11-15T14:42:33;5.50;;;1.20;;
71484;SDS011;59300;52.074;4.758;2022-11-15T14:45:34;5.97;;;1.60;;
71484;SDS011;59300;52.074;4.758;2022-11-15T14:48:36;6.15;;;1.83;;
71484;SDS011;59300;52.074;4.758;2022-11-15T14:51:37;6.03;;;1.23;;
71484;SDS011;59300;52.074;4.758;2022-11-15T14:54:39;4.97;;;1.35;;
71484;SDS011;59300;52.074;4.758;2022-11-15T14:57:40;1.88;;;1.25;;
71484;SDS011;59300;52.074;4.758;2022-11-15T15:00:42;5.38;;;1.40;;
71484;SDS011;59300;52.074;4.758;2022-11-15T15:03:43;4.95;;;1.48;;
71484;SDS011;59300;52.074;4.758;2022-11-15T15:06:45;5.15;;;1.27;;
71484;SDS011;59300;52.074;4.758;2022-11-15T15:09:46;5.90;;;1.38;;
71484;SDS011;59300;52.074;4.758;2022-11-15T15:12:48;7.63;;;1.60;;
71484;SDS011;59300;52.074;4.758;2022-11-15T15:15:50;4.75;;;1.35;;
71484;SDS011;59300;52.074;4.758;2022-11-15T15:18:53;1.95;;;1.20;;
71484;SDS011;59300;52.074;4.758;2022-11-15T15:21:55;6.13;;;1.60;;
71484;SDS011;59300;52.074;4.758;2022-11-15T15:24:56;5.57;;;1.40;;
71484;SDS011;59300;52.074;4.758;2022-11-15T15:27:58;4.97;;;1.58;;
71484;SDS011;59300;52.074;4.758;2022-11-15T15:31:00;3.92;;;1.55;;
71484;SDS011;59300;52.074;4.758;2022-11-15T15:34:03;4.53;;;1.40;;
71484;SDS011;59300;52.074;4.758;2022-11-15T15:40:12;3.30;;;1.40;;
71484;SDS011;59300;52.074;4.758;2022-11-15T15:43:15;6.93;;;1.58;;
71484;SDS011;59300;52.074;4.758;2022-11-15T15:46:17;3.92;;;1.50;;
71484;SDS011;59300;52.074;4.758;2022-11-15T15:49:20;2.20;;;1.38;;
71484;SDS011;59300;52.074;4.758;2022-11-15T15:52:21;4.03;;;1.33;;
71484;SDS011;59300;52.074;4.758;2022-11-15T15:55:23;5.22;;;1.50;;
71484;SDS011;59300;52.074;4.758;2022-11-15T15:58:25;4.88;;;1.55;;
71484;SDS011;59300;52.074;4.758;2022-11-15T16:01:27;5.03;;;1.40;;
71484;SDS011;59300;52.074;4.758;2022-11-15T16:04:28;7.25;;;1.60;;
71484;SDS011;59300;52.074;4.758;2022-11-15T16:07:30;10.90;;;1.90;;
71484;SDS011;59300;52.074;4.758;2022-11-15T16:10:32;8.98;;;1.80;;
71484;SDS011;59300;52.074;4.758;2022-11-15T16:13:34;3.50;;;1.80;;
71484;SDS011;59300;52.074;4.758;2022-11-15T16:16:37;4.18;;;1.70;;
71484;SDS011;59300;52.074;4.758;2022-11-15T16:19:38;3.28;;;1.90;;
71484;SDS011;59300;52.074;4.758;2022-11-15T16:22:40;4.68;;;2.08;;
71484;SDS011;59300;52.074;4.758;2022-11-15T16:25:44;5.32;;;2.22;;
71484;SDS011;59300;52.074;4.758;2022-11-15T16:28:47;7.25;;;2.13;;
71484;SDS011;59300;52.074;4.758;2022-11-15T16:31:48;7.63;;;2.38;;
71484;SDS011;59300;52.074;4.758;2022-11-15T16:34:50;4.38;;;2.40;;
71484;SDS011;59300;52.074;4.758;2022-11-15T16:37:51;5.00;;;2.35;;
71484;SDS011;59300;52.074;4.758;2022-11-15T16:40:53;4.38;;;2.17;;
71484;SDS011;59300;52.074;4.758;2022-11-15T16:43:54;11.05;;;2.60;;
71484;SDS011;59300;52.074;4.758;2022-11-15T16:46:56;4.47;;;2.25;;
71484;SDS011;59300;52.074;4.758;2022-11-15T16:49:57;5.38;;;2.53;;
71484;SDS011;59300;52.074;4.758;2022-11-15T16:52:59;4.75;;;2.75;;
71484;SDS011;59300;52.074;4.758;2022-11-15T16:56:01;7.45;;;3.35;;
71484;SDS011;59300;52.074;4.758;2022-11-15T16:59:02;6.30;;;2.95;;
71484;SDS011;59300;52.074;4.758;2022-11-15T17:02:04;6.05;;;2.90;;
71484;SDS011;59300;52.074;4.758;2022-11-15T17:05:12;4.60;;;2.70;;
71484;SDS011;59300;52.074;4.758;2022-11-15T17:08:20;6.22;;;2.83;;
71484;SDS011;59300;52.074;4.758;2022-11-15T17:11:22;8.82;;;3.20;;
71484;SDS011;59300;52.074;4.758;2022-11-15T17:14:23;7.70;;;3.53;;
71484;SDS011;59300;52.074;4.758;2022-11-15T17:17:25;6.53;;;3.45;;
71484;SDS011;59300;52.074;4.758;2022-11-15T17:20:26;8.25;;;3.47;;
71484;SDS011;59300;52.074;4.758;2022-11-15T17:23:28;5.85;;;3.53;;
71484;SDS011;59300;52.074;4.758;2022-11-15T17:26:29;7.55;;;3.85;;
71484;SDS011;59300;52.074;4.758;2022-11-15T17:29:35;6.40;;;4.00;;
71484;SDS011;59300;52.074;4.758;2022-11-15T17:32:36;9.25;;;3.75;;
71484;SDS011;59300;52.074;4.758;2022-11-15T17:35:38;9.15;;;4.00;;
71484;SDS011;59300;52.074;4.758;2022-11-15T17:38:42;11.07;;;4.40;;
71484;SDS011;59300;52.074;4.758;2022-11-15T17:41:44;5.90;;;4.20;;
71484;SDS011;59300;52.074;4.758;2022-11-15T17:44:46;10.15;;;5.25;;
71484;SDS011;59300;52.074;4.758;2022-11-15T17:47:48;12.05;;;5.55;;
71484;SDS011;59300;52.074;4.758;2022-11-15T17:50:53;11.00;;;5.03;;
71484;SDS011;59300;52.074;4.758;2022-11-15T17:53:58;12.30;;;5.20;;
71484;SDS011;59300;52.074;4.758;2022-11-15T17:57:00;9.60;;;5.38;;
71484;SDS011;59300;52.074;4.758;2022-11-15T18:00:02;15.77;;;5.40;;
71484;SDS011;59300;52.074;4.758;2022-11-15T18:03:04;7.95;;;5.15;;
71484;SDS011;59300;52.074;4.758;2022-11-15T18:06:06;6.97;;;5.40;;
71484;SDS011;59300;52.074;4.758;2022-11-15T18:09:08;10.25;;;5.10;;
71484;SDS011;59300;52.074;4.758;2022-11-15T18:12:11;9.82;;;6.07;;
71484;SDS011;59300;52.074;4.758;2022-11-15T18:15:12;9.55;;;5.70;;
71484;SDS011;59300;52.074;4.758;2022-11-15T18:18:14;10.00;;;6.28;;
71484;SDS011;59300;52.074;4.758;2022-11-15T18:21:17;11.50;;;5.90;;
71484;SDS011;59300;52.074;4.758;2022-11-15T18:24:33;9.95;;;5.57;;
71484;SDS011;59300;52.074;4.758;2022-11-15T18:27:36;8.38;;;5.78;;
71484;SDS011;59300;52.074;4.758;2022-11-15T18:30:37;11.57;;;6.43;;
71484;SDS011;59300;52.074;4.758;2022-11-15T18:33:39;7.63;;;5.70;;
71484;SDS011;59300;52.074;4.758;2022-11-15T18:36:40;8.43;;;6.07;;
71484;SDS011;59300;52.074;4.758;2022-11-15T18:39:41;10.60;;;7.35;;
71484;SDS011;59300;52.074;4.758;2022-11-15T18:42:43;11.27;;;6.82;;
71484;SDS011;59300;52.074;4.758;2022-11-15T18:45:44;12.35;;;7.28;;
71484;SDS011;59300;52.074;4.758;2022-11-15T18:48:50;12.65;;;7.63;;
71484;SDS011;59300;52.074;4.758;2022-11-15T18:51:52;11.63;;;7.25;;
71484;SDS011;59300;52.074;4.758;2022-11-15T18:54:54;12.05;;;7.50;;
71484;SDS011;59300;52.074;4.758;2022-11-15T18:57:55;12.35;;;7.93;;
71484;SDS011;59300;52.074;4.758;2022-11-15T19:01:00;14.27;;;9.10;;
71484;SDS011;59300;52.074;4.758;2022-11-15T19:04:11;15.30;;;8.02;;
71484;SDS011;59300;52.074;4.758;2022-11-15T19:07:14;13.60;;;8.32;;
71484;SDS011;59300;52.074;4.758;2022-11-15T19:10:15;18.27;;;9.07;;
71484;SDS011;59300;52.074;4.758;2022-11-15T19:13:17;14.13;;;9.23;;
71484;SDS011;59300;52.074;4.758;2022-11-15T19:16:19;14.23;;;9.63;;
71484;SDS011;59300;52.074;4.758;2022-11-15T19:19:24;15.55;;;9.75;;
71484;SDS011;59300;52.074;4.758;2022-11-15T19:22:26;13.57;;;9.23;;
71484;SDS011;59300;52.074;4.758;2022-11-15T19:25:28;13.20;;;8.98;;
71484;SDS011;59300;52.074;4.758;2022-11-15T19:28:30;17.77;;;10.23;;
71484;SDS011;59300;52.074;4.758;2022-11-15T19:31:32;18.25;;;10.10;;
71484;SDS011;59300;52.074;4.758;2022-11-15T19:34:34;17.35;;;10.55;;
71484;SDS011;59300;52.074;4.758;2022-11-15T19:37:35;18.13;;;11.60;;
71484;SDS011;59300;52.074;4.758;2022-11-15T19:40:37;18.02;;;12.90;;
71484;SDS011;59300;52.074;4.758;2022-11-15T19:43:39;20.55;;;12.48;;
71484;SDS011;59300;52.074;4.758;2022-11-15T19:46:43;20.92;;;12.07;;
71484;SDS011;59300;52.074;4.758;2022-11-15T19:49:45;20.30;;;12.82;;
71484;SDS011;59300;52.074;4.758;2022-11-15T19:52:46;21.10;;;12.52;;
71484;SDS011;59300;52.074;4.758;2022-11-15T19:55:54;21.38;;;12.65;;
71484;SDS011;59300;52.074;4.758;2022-11-15T19:58:57;22.45;;;12.88;;
71484;SDS011;59300;52.074;4.758;2022-11-15T20:01:59;20.98;;;14.50;;
71484;SDS011;59300;52.074;4.758;2022-11-15T20:05:00;22.95;;;13.95;;
71484;SDS011;59300;52.074;4.758;2022-11-15T20:08:02;22.73;;;12.63;;
71484;SDS011;59300;52.074;4.758;2022-11-15T20:11:03;20.20;;;13.20;;
71484;SDS011;59300;52.074;4.758;2022-11-15T20:14:05;20.02;;;12.85;;
71484;SDS011;59300;52.074;4.758;2022-11-15T20:17:07;20.52;;;12.90;;
71484;SDS011;59300;52.074;4.758;2022-11-15T20:20:08;20.25;;;13.38;;
71484;SDS011;59300;52.074;4.758;2022-11-15T20:23:10;20.25;;;12.77;;
71484;SDS011;59300;52.074;4.758;2022-11-15T20:26:12;19.98;;;13.43;;
71484;SDS011;59300;52.074;4.758;2022-11-15T20:29:14;21.55;;;13.18;;
71484;SDS011;59300;52.074;4.758;2022-11-15T20:32:16;21.13;;;13.23;;